Terminal Aerodrome Forecast
Issued by NWS Wilmington, OH

Current Version | Previous Version | Graphics & Text | Print | Product List | Glossary On
Versions: 1 2 3 4 5 6 7 8 9 10 11 12 13 14 15 16 17 18 19 20 21 22 23 24 25 26 27 28
000
FTUS41 KILN 311700
TAFCVG
TAF
KCVG 311720Z 3118/0124 28014KT 6SM -DZ SCT009 OVC015
      TEMPO 3118/3120 -DZ OVC008
     FM312100 31012KT P6SM OVC008
     FM010200 35006KT 4SM BR OVC007
     FM011000 02007KT 3SM BR OVC007
     FM011300 03009KT P6SM OVC020=

USA.gov is the U.S. government's official web portal to all federal, state and local government web resources and services.